sensor_id;sensor_type;location;lat;lon;timestamp;P1;durP1;ratioP1;P2;durP2;ratioP2
54197;SDS011;40105;52.366;17.000;2023-04-01T00:00:18;16.27;;;8.20;;
54197;SDS011;40105;52.366;17.000;2023-04-01T00:02:43;23.15;;;9.75;;
54197;SDS011;40105;52.366;17.000;2023-04-01T00:05:09;24.90;;;10.02;;
54197;SDS011;40105;52.366;17.000;2023-04-01T00:07:35;16.95;;;9.52;;
54197;SDS011;40105;52.366;17.000;2023-04-01T00:10:00;23.60;;;11.27;;
54197;SDS011;40105;52.366;17.000;2023-04-01T00:12:25;31.30;;;11.43;;
54197;SDS011;40105;52.366;17.000;2023-04-01T00:14:51;26.67;;;11.63;;
54197;SDS011;40105;52.366;17.000;2023-04-01T00:17:16;31.17;;;12.95;;
54197;SDS011;40105;52.366;17.000;2023-04-01T00:19:41;30.80;;;12.70;;
54197;SDS011;40105;52.366;17.000;2023-04-01T00:22:06;20.47;;;10.30;;
54197;SDS011;40105;52.366;17.000;2023-04-01T00:24:32;39.50;;;12.50;;
54197;SDS011;40105;52.366;17.000;2023-04-01T00:26:57;30.20;;;13.27;;
54197;SDS011;40105;52.366;17.000;2023-04-01T00:29:22;28.90;;;13.50;;
54197;SDS011;40105;52.366;17.000;2023-04-01T00:31:49;35.55;;;15.35;;
54197;SDS011;40105;52.366;17.000;2023-04-01T00:34:14;28.75;;;13.65;;
54197;SDS011;40105;52.366;17.000;2023-04-01T00:36:40;25.02;;;15.02;;
54197;SDS011;40105;52.366;17.000;2023-04-01T00:39:05;21.30;;;12.75;;
54197;SDS011;40105;52.366;17.000;2023-04-01T00:41:30;24.47;;;10.37;;
54197;SDS011;40105;52.366;17.000;2023-04-01T00:44:11;22.20;;;10.27;;
54197;SDS011;40105;52.366;17.000;2023-04-01T00:46:38;29.70;;;11.85;;
54197;SDS011;40105;52.366;17.000;2023-04-01T00:49:04;22.20;;;9.83;;
54197;SDS011;40105;52.366;17.000;2023-04-01T00:51:29;25.27;;;10.63;;
54197;SDS011;40105;52.366;17.000;2023-04-01T00:53:56;20.73;;;11.63;;
54197;SDS011;40105;52.366;17.000;2023-04-01T00:56:24;21.65;;;10.05;;
54197;SDS011;40105;52.366;17.000;2023-04-01T00:58:53;25.45;;;10.35;;
54197;SDS011;40105;52.366;17.000;2023-04-01T01:01:20;19.50;;;9.60;;
54197;SDS011;40105;52.366;17.000;2023-04-01T01:03:46;23.15;;;10.50;;
54197;SDS011;40105;52.366;17.000;2023-04-01T01:11:28;19.77;;;9.43;;
54197;SDS011;40105;52.366;17.000;2023-04-01T01:13:58;25.65;;;10.15;;
54197;SDS011;40105;52.366;17.000;2023-04-01T01:16:29;20.92;;;9.85;;
54197;SDS011;40105;52.366;17.000;2023-04-01T01:24:16;24.95;;;10.20;;
54197;SDS011;40105;52.366;17.000;2023-04-01T01:26:46;25.42;;;12.48;;
54197;SDS011;40105;52.366;17.000;2023-04-01T01:31:58;30.35;;;14.63;;
54197;SDS011;40105;52.366;17.000;2023-04-01T01:34:44;53.28;;;16.88;;
54197;SDS011;40105;52.366;17.000;2023-04-01T01:37:13;33.85;;;16.25;;
54197;SDS011;40105;52.366;17.000;2023-04-01T01:39:40;39.00;;;16.55;;
54197;SDS011;40105;52.366;17.000;2023-04-01T01:42:07;41.70;;;17.33;;
54197;SDS011;40105;52.366;17.000;2023-04-01T01:44:34;38.60;;;15.82;;
54197;SDS011;40105;52.366;17.000;2023-04-01T01:47:00;40.47;;;16.45;;
54197;SDS011;40105;52.366;17.000;2023-04-01T01:49:26;39.10;;;16.42;;
54197;SDS011;40105;52.366;17.000;2023-04-01T01:51:52;33.22;;;16.08;;
54197;SDS011;40105;52.366;17.000;2023-04-01T01:54:17;33.22;;;15.98;;
54197;SDS011;40105;52.366;17.000;2023-04-01T01:56:44;33.77;;;14.77;;
54197;SDS011;40105;52.366;17.000;2023-04-01T01:59:10;41.03;;;16.27;;
54197;SDS011;40105;52.366;17.000;2023-04-01T02:01:37;33.28;;;15.55;;
54197;SDS011;40105;52.366;17.000;2023-04-01T02:04:04;30.90;;;15.65;;
54197;SDS011;40105;52.366;17.000;2023-04-01T02:06:30;35.13;;;17.73;;
54197;SDS011;40105;52.366;17.000;2023-04-01T02:08:59;38.92;;;15.25;;
54197;SDS011;40105;52.366;17.000;2023-04-01T02:11:27;30.38;;;15.80;;
54197;SDS011;40105;52.366;17.000;2023-04-01T02:13:58;31.35;;;15.50;;
54197;SDS011;40105;52.366;17.000;2023-04-01T02:16:33;30.23;;;16.25;;
54197;SDS011;40105;52.366;17.000;2023-04-01T02:18:59;33.38;;;16.80;;
54197;SDS011;40105;52.366;17.000;2023-04-01T02:21:27;39.50;;;16.48;;
54197;SDS011;40105;52.366;17.000;2023-04-01T02:23:54;42.55;;;17.52;;
54197;SDS011;40105;52.366;17.000;2023-04-01T02:26:21;39.50;;;16.58;;
54197;SDS011;40105;52.366;17.000;2023-04-01T02:28:48;30.85;;;15.38;;
54197;SDS011;40105;52.366;17.000;2023-04-01T02:31:14;34.22;;;16.88;;
54197;SDS011;40105;52.366;17.000;2023-04-01T02:33:39;32.83;;;15.98;;
54197;SDS011;40105;52.366;17.000;2023-04-01T02:36:05;38.17;;;17.50;;
54197;SDS011;40105;52.366;17.000;2023-04-01T02:38:30;48.08;;;16.75;;
54197;SDS011;40105;52.366;17.000;2023-04-01T02:40:57;31.45;;;16.63;;
54197;SDS011;40105;52.366;17.000;2023-04-01T02:43:22;42.47;;;16.60;;
54197;SDS011;40105;52.366;17.000;2023-04-01T02:45:48;33.60;;;15.60;;
54197;SDS011;40105;52.366;17.000;2023-04-01T02:48:13;38.00;;;16.73;;
54197;SDS011;40105;52.366;17.000;2023-04-01T02:50:39;34.50;;;16.55;;
54197;SDS011;40105;52.366;17.000;2023-04-01T02:53:04;37.97;;;15.25;;
54197;SDS011;40105;52.366;17.000;2023-04-01T02:55:31;35.08;;;14.73;;
54197;SDS011;40105;52.366;17.000;2023-04-01T02:57:56;37.55;;;15.25;;
54197;SDS011;40105;52.366;17.000;2023-04-01T03:00:21;38.33;;;15.83;;
54197;SDS011;40105;52.366;17.000;2023-04-01T03:02:46;36.37;;;15.40;;
54197;SDS011;40105;52.366;17.000;2023-04-01T03:05:12;31.77;;;16.83;;
54197;SDS011;40105;52.366;17.000;2023-04-01T03:07:37;34.88;;;16.08;;
54197;SDS011;40105;52.366;17.000;2023-04-01T03:10:02;28.07;;;14.50;;
54197;SDS011;40105;52.366;17.000;2023-04-01T03:12:28;29.30;;;14.35;;
54197;SDS011;40105;52.366;17.000;2023-04-01T03:14:53;32.47;;;15.37;;
54197;SDS011;40105;52.366;17.000;2023-04-01T03:17:18;37.97;;;15.80;;
54197;SDS011;40105;52.366;17.000;2023-04-01T03:19:43;41.40;;;16.50;;
54197;SDS011;40105;52.366;17.000;2023-04-01T03:22:11;36.73;;;16.17;;
54197;SDS011;40105;52.366;17.000;2023-04-01T03:24:36;33.22;;;17.42;;
54197;SDS011;40105;52.366;17.000;2023-04-01T03:27:02;38.07;;;18.43;;
54197;SDS011;40105;52.366;17.000;2023-04-01T03:29:27;32.97;;;16.57;;
54197;SDS011;40105;52.366;17.000;2023-04-01T03:31:52;42.70;;;18.03;;
54197;SDS011;40105;52.366;17.000;2023-04-01T03:34:17;38.67;;;17.17;;
54197;SDS011;40105;52.366;17.000;2023-04-01T03:36:42;40.47;;;16.83;;
54197;SDS011;40105;52.366;17.000;2023-04-01T03:39:08;40.87;;;18.20;;
54197;SDS011;40105;52.366;17.000;2023-04-01T03:41:35;37.03;;;16.17;;
54197;SDS011;40105;52.366;17.000;2023-04-01T03:44:00;34.30;;;16.10;;
54197;SDS011;40105;52.366;17.000;2023-04-01T03:46:25;39.40;;;16.17;;
54197;SDS011;40105;52.366;17.000;2023-04-01T03:48:50;37.63;;;14.87;;
54197;SDS011;40105;52.366;17.000;2023-04-01T03:51:16;24.97;;;11.83;;
54197;SDS011;40105;52.366;17.000;2023-04-01T03:53:41;24.30;;;10.07;;
54197;SDS011;40105;52.366;17.000;2023-04-01T03:56:06;17.27;;;8.80;;
54197;SDS011;40105;52.366;17.000;2023-04-01T03:58:32;17.85;;;8.38;;
54197;SDS011;40105;52.366;17.000;2023-04-01T04:00:57;20.88;;;8.13;;
54197;SDS011;40105;52.366;17.000;2023-04-01T04:03:22;14.33;;;7.13;;
54197;SDS011;40105;52.366;17.000;2023-04-01T04:05:48;13.70;;;5.97;;
54197;SDS011;40105;52.366;17.000;2023-04-01T04:08:13;17.33;;;5.85;;
54197;SDS011;40105;52.366;17.000;2023-04-01T04:10:39;15.20;;;6.75;;
54197;SDS011;40105;52.366;17.000;2023-04-01T04:13:04;13.63;;;5.95;;
54197;SDS011;40105;52.366;17.000;2023-04-01T04:15:30;10.27;;;4.67;;
54197;SDS011;40105;52.366;17.000;2023-04-01T04:17:55;13.68;;;5.55;;
54197;SDS011;40105;52.366;17.000;2023-04-01T04:20:20;13.83;;;5.03;;
54197;SDS011;40105;52.366;17.000;2023-04-01T04:22:46;12.53;;;5.57;;
54197;SDS011;40105;52.366;17.000;2023-04-01T04:25:11;11.70;;;5.47;;
54197;SDS011;40105;52.366;17.000;2023-04-01T04:27:36;13.70;;;4.27;;
54197;SDS011;40105;52.366;17.000;2023-04-01T04:30:01;14.17;;;4.33;;
54197;SDS011;40105;52.366;17.000;2023-04-01T04:32:26;10.25;;;4.70;;
54197;SDS011;40105;52.366;17.000;2023-04-01T04:34:52;10.60;;;4.63;;
54197;SDS011;40105;52.366;17.000;2023-04-01T04:37:17;12.80;;;5.07;;
54197;SDS011;40105;52.366;17.000;2023-04-01T04:39:42;13.83;;;6.63;;
54197;SDS011;40105;52.366;17.000;2023-04-01T04:42:07;11.83;;;5.50;;
54197;SDS011;40105;52.366;17.000;2023-04-01T04:44:32;12.77;;;5.60;;
54197;SDS011;40105;52.366;17.000;2023-04-01T04:46:57;14.77;;;6.17;;
54197;SDS011;40105;52.366;17.000;2023-04-01T04:49:22;11.38;;;5.32;;
54197;SDS011;40105;52.366;17.000;2023-04-01T04:51:48;12.53;;;6.63;;
54197;SDS011;40105;52.366;17.000;2023-04-01T04:54:13;19.35;;;7.32;;
54197;SDS011;40105;52.366;17.000;2023-04-01T04:56:38;15.43;;;6.87;;
54197;SDS011;40105;52.366;17.000;2023-04-01T04:59:03;15.23;;;7.40;;
54197;SDS011;40105;52.366;17.000;2023-04-01T05:01:29;17.30;;;8.17;;
54197;SDS011;40105;52.366;17.000;2023-04-01T05:03:54;17.33;;;7.40;;
54197;SDS011;40105;52.366;17.000;2023-04-01T05:06:19;17.93;;;8.27;;
54197;SDS011;40105;52.366;17.000;2023-04-01T05:08:45;18.58;;;7.55;;
54197;SDS011;40105;52.366;17.000;2023-04-01T05:11:14;26.10;;;9.50;;
54197;SDS011;40105;52.366;17.000;2023-04-01T05:13:39;16.10;;;8.00;;
54197;SDS011;40105;52.366;17.000;2023-04-01T05:16:08;25.43;;;8.27;;
54197;SDS011;40105;52.366;17.000;2023-04-01T05:18:34;17.85;;;9.05;;
54197;SDS011;40105;52.366;17.000;2023-04-01T05:20:59;19.57;;;9.60;;
54197;SDS011;40105;52.366;17.000;2023-04-01T05:23:24;22.07;;;9.57;;
54197;SDS011;40105;52.366;17.000;2023-04-01T05:25:49;19.13;;;9.90;;
54197;SDS011;40105;52.366;17.000;2023-04-01T05:28:16;19.45;;;8.52;;
54197;SDS011;40105;52.366;17.000;2023-04-01T05:30:41;26.00;;;9.55;;
54197;SDS011;40105;52.366;17.000;2023-04-01T05:33:06;19.58;;;10.90;;
54197;SDS011;40105;52.366;17.000;2023-04-01T05:35:32;23.07;;;9.93;;
54197;SDS011;40105;52.366;17.000;2023-04-01T05:37:57;19.30;;;9.63;;
54197;SDS011;40105;52.366;17.000;2023-04-01T05:40:22;24.63;;;9.77;;
54197;SDS011;40105;52.366;17.000;2023-04-01T05:42:47;22.93;;;9.17;;
54197;SDS011;40105;52.366;17.000;2023-04-01T05:45:12;25.07;;;10.60;;
54197;SDS011;40105;52.366;17.000;2023-04-01T05:47:40;24.63;;;10.77;;
54197;SDS011;40105;52.366;17.000;2023-04-01T05:50:05;28.25;;;12.38;;
54197;SDS011;40105;52.366;17.000;2023-04-01T05:52:30;23.37;;;10.07;;
54197;SDS011;40105;52.366;17.000;2023-04-01T05:54:56;29.97;;;11.10;;
54197;SDS011;40105;52.366;17.000;2023-04-01T05:57:21;30.80;;;12.35;;
54197;SDS011;40105;52.366;17.000;2023-04-01T05:59:46;31.73;;;11.20;;
54197;SDS011;40105;52.366;17.000;2023-04-01T06:02:11;22.50;;;9.90;;
54197;SDS011;40105;52.366;17.000;2023-04-01T06:04:37;20.87;;;10.00;;
54197;SDS011;40105;52.366;17.000;2023-04-01T06:07:12;24.55;;;9.88;;
54197;SDS011;40105;52.366;17.000;2023-04-01T06:09:38;22.80;;;9.55;;
54197;SDS011;40105;52.366;17.000;2023-04-01T06:20:21;26.42;;;10.30;;
54197;SDS011;40105;52.366;17.000;2023-04-01T06:30:47;21.13;;;9.57;;
54197;SDS011;40105;52.366;17.000;2023-04-01T06:33:29;22.75;;;8.90;;
54197;SDS011;40105;52.366;17.000;2023-04-01T06:36:04;18.37;;;8.47;;
54197;SDS011;40105;52.366;17.000;2023-04-01T06:48:59;18.48;;;8.20;;
54197;SDS011;40105;52.366;17.000;2023-04-01T06:51:33;19.35;;;7.95;;
54197;SDS011;40105;52.366;17.000;2023-04-01T06:56:27;19.83;;;8.00;;
54197;SDS011;40105;52.366;17.000;2023-04-01T06:58:54;16.58;;;7.50;;
54197;SDS011;40105;52.366;17.000;2023-04-01T07:01:22;13.40;;;6.47;;
54197;SDS011;40105;52.366;17.000;2023-04-01T07:03:53;20.65;;;6.55;;
54197;SDS011;40105;52.366;17.000;2023-04-01T07:09:11;11.85;;;4.97;;
54197;SDS011;40105;52.366;17.000;2023-04-01T07:11:37;15.60;;;5.40;;
54197;SDS011;40105;52.366;17.000;2023-04-01T07:14:23;14.93;;;5.25;;
54197;SDS011;40105;52.366;17.000;2023-04-01T07:19:22;12.80;;;5.53;;
54197;SDS011;40105;52.366;17.000;2023-04-01T07:21:50;20.10;;;6.68;;
54197;SDS011;40105;52.366;17.000;2023-04-01T07:24:20;12.20;;;5.68;;
54197;SDS011;40105;52.366;17.000;2023-04-01T07:26:54;14.57;;;5.82;;
54197;SDS011;40105;52.366;17.000;2023-04-01T07:29:20;15.20;;;7.40;;
54197;SDS011;40105;52.366;17.000;2023-04-01T07:32:32;21.60;;;7.73;;
54197;SDS011;40105;52.366;17.000;2023-04-01T07:37:15;28.05;;;9.13;;
54197;SDS011;40105;52.366;17.000;2023-04-01T07:52:42;19.53;;;9.40;;
54197;SDS011;40105;52.366;17.000;2023-04-01T07:55:21;23.02;;;9.50;;
54197;SDS011;40105;52.366;17.000;2023-04-01T08:05:53;22.73;;;8.70;;
54197;SDS011;40105;52.366;17.000;2023-04-01T08:08:29;21.15;;;9.52;;
54197;SDS011;40105;52.366;17.000;2023-04-01T08:11:04;25.25;;;8.68;;
54197;SDS011;40105;52.366;17.000;2023-04-01T08:16:08;25.52;;;9.18;;
54197;SDS011;40105;52.366;17.000;2023-04-01T08:18:38;22.08;;;8.73;;
54197;SDS011;40105;52.366;17.000;2023-04-01T08:21:11;24.90;;;8.80;;
54197;SDS011;40105;52.366;17.000;2023-04-01T08:23:46;16.63;;;7.28;;
54197;SDS011;40105;52.366;17.000;2023-04-01T08:26:27;26.25;;;9.60;;
54197;SDS011;40105;52.366;17.000;2023-04-01T08:28:59;21.50;;;9.18;;
54197;SDS011;40105;52.366;17.000;2023-04-01T08:31:39;17.03;;;8.30;;
54197;SDS011;40105;52.366;17.000;2023-04-01T08:34:28;22.30;;;9.43;;
54197;SDS011;40105;52.366;17.000;2023-04-01T08:37:05;18.95;;;7.40;;
54197;SDS011;40105;52.366;17.000;2023-04-01T08:39:33;22.35;;;10.63;;
54197;SDS011;40105;52.366;17.000;2023-04-01T08:47:20;17.70;;;7.93;;
54197;SDS011;40105;52.366;17.000;2023-04-01T08:50:01;22.67;;;8.02;;
54197;SDS011;40105;52.366;17.000;2023-04-01T08:52:38;17.90;;;7.80;;
54197;SDS011;40105;52.366;17.000;2023-04-01T08:55:21;21.42;;;9.18;;
54197;SDS011;40105;52.366;17.000;2023-04-01T08:57:56;24.92;;;11.18;;
54197;SDS011;40105;52.366;17.000;2023-04-01T09:00:30;27.33;;;10.57;;
54197;SDS011;40105;52.366;17.000;2023-04-01T09:21:13;42.65;;;14.30;;
54197;SDS011;40105;52.366;17.000;2023-04-01T09:23:43;41.95;;;14.50;;
54197;SDS011;40105;52.366;17.000;2023-04-01T09:28:58;42.75;;;12.20;;
54197;SDS011;40105;52.366;17.000;2023-04-01T09:44:35;47.22;;;14.73;;
54197;SDS011;40105;52.366;17.000;2023-04-01T09:49:50;34.85;;;14.95;;
54197;SDS011;40105;52.366;17.000;2023-04-01T09:52:25;65.15;;;28.52;;
54197;SDS011;40105;52.366;17.000;2023-04-01T10:08:18;40.13;;;16.20;;
54197;SDS011;40105;52.366;17.000;2023-04-01T10:28:59;70.95;;;24.85;;
54197;SDS011;40105;52.366;17.000;2023-04-01T10:31:42;79.25;;;31.02;;
54197;SDS011;40105;52.366;17.000;2023-04-01T10:45:24;58.78;;;17.02;;
54197;SDS011;40105;52.366;17.000;2023-04-01T10:55:56;48.17;;;16.98;;
54197;SDS011;40105;52.366;17.000;2023-04-01T11:03:41;55.97;;;18.67;;
54197;SDS011;40105;52.366;17.000;2023-04-01T11:09:01;55.75;;;17.40;;
54197;SDS011;40105;52.366;17.000;2023-04-01T11:27:23;71.80;;;23.50;;
54197;SDS011;40105;52.366;17.000;2023-04-01T11:32:26;84.25;;;23.85;;
54197;SDS011;40105;52.366;17.000;2023-04-01T11:40:28;74.93;;;24.83;;
54197;SDS011;40105;52.366;17.000;2023-04-01T11:43:14;55.10;;;20.50;;
54197;SDS011;40105;52.366;17.000;2023-04-01T11:45:51;64.50;;;22.38;;
54197;SDS011;40105;52.366;17.000;2023-04-01T11:56:26;50.53;;;17.52;;
54197;SDS011;40105;52.366;17.000;2023-04-01T12:01:44;56.75;;;18.98;;
54197;SDS011;40105;52.366;17.000;2023-04-01T12:16:45;47.13;;;18.60;;
54197;SDS011;40105;52.366;17.000;2023-04-01T12:21:55;45.88;;;20.05;;
54197;SDS011;40105;52.366;17.000;2023-04-01T12:32:06;34.85;;;16.50;;
54197;SDS011;40105;52.366;17.000;2023-04-01T12:34:42;29.25;;;14.30;;
54197;SDS011;40105;52.366;17.000;2023-04-01T12:37:17;32.42;;;16.48;;
54197;SDS011;40105;52.366;17.000;2023-04-01T12:54:58;62.63;;;25.52;;
54197;SDS011;40105;52.366;17.000;2023-04-01T12:57:34;36.85;;;14.60;;
54197;SDS011;40105;52.366;17.000;2023-04-01T13:02:52;35.83;;;16.58;;
54197;SDS011;40105;52.366;17.000;2023-04-01T13:07:58;68.28;;;33.03;;
54197;SDS011;40105;52.366;17.000;2023-04-01T13:18:14;44.22;;;21.30;;
54197;SDS011;40105;52.366;17.000;2023-04-01T13:20:43;46.50;;;20.55;;
54197;SDS011;40105;52.366;17.000;2023-04-01T13:23:13;31.83;;;14.05;;
54197;SDS011;40105;52.366;17.000;2023-04-01T13:30:33;29.70;;;14.60;;
54197;SDS011;40105;52.366;17.000;2023-04-01T13:56:19;16.00;;;10.52;;
54197;SDS011;40105;52.366;17.000;2023-04-01T14:01:15;18.67;;;9.35;;
54197;SDS011;40105;52.366;17.000;2023-04-01T14:06:37;18.30;;;10.38;;
54197;SDS011;40105;52.366;17.000;2023-04-01T14:09:11;22.55;;;9.93;;
54197;SDS011;40105;52.366;17.000;2023-04-01T14:17:10;24.20;;;10.45;;
54197;SDS011;40105;52.366;17.000;2023-04-01T14:22:32;21.55;;;8.80;;
54197;SDS011;40105;52.366;17.000;2023-04-01T14:27:54;16.08;;;9.48;;
54197;SDS011;40105;52.366;17.000;2023-04-01T14:33:11;18.75;;;12.68;;
54197;SDS011;40105;52.366;17.000;2023-04-01T14:35:42;32.53;;;17.42;;
54197;SDS011;40105;52.366;17.000;2023-04-01T14:40:58;19.48;;;12.82;;
54197;SDS011;40105;52.366;17.000;2023-04-01T14:48:32;16.67;;;8.80;;
54197;SDS011;40105;52.366;17.000;2023-04-01T14:51:03;23.02;;;8.32;;
54197;SDS011;40105;52.366;17.000;2023-04-01T14:53:30;21.48;;;11.23;;
54197;SDS011;40105;52.366;17.000;2023-04-01T14:55:57;18.40;;;9.77;;
54197;SDS011;40105;52.366;17.000;2023-04-01T14:58:24;15.48;;;8.52;;
54197;SDS011;40105;52.366;17.000;2023-04-01T15:03:49;19.48;;;8.73;;
54197;SDS011;40105;52.366;17.000;2023-04-01T15:11:19;13.55;;;8.65;;
54197;SDS011;40105;52.366;17.000;2023-04-01T15:14:01;15.23;;;7.97;;
54197;SDS011;40105;52.366;17.000;2023-04-01T15:22:13;15.63;;;8.40;;
54197;SDS011;40105;52.366;17.000;2023-04-01T15:29:51;12.40;;;7.05;;
54197;SDS011;40105;52.366;17.000;2023-04-01T15:32:17;12.88;;;8.07;;
54197;SDS011;40105;52.366;17.000;2023-04-01T15:37:22;13.48;;;8.00;;
54197;SDS011;40105;52.366;17.000;2023-04-01T15:40:08;15.93;;;8.10;;
54197;SDS011;40105;52.366;17.000;2023-04-01T15:45:12;20.80;;;10.50;;
54197;SDS011;40105;52.366;17.000;2023-04-01T15:48:01;13.60;;;7.85;;
54197;SDS011;40105;52.366;17.000;2023-04-01T15:53:17;15.48;;;7.80;;
54197;SDS011;40105;52.366;17.000;2023-04-01T15:55:46;13.43;;;6.90;;
54197;SDS011;40105;52.366;17.000;2023-04-01T16:00:58;12.27;;;6.97;;
54197;SDS011;40105;52.366;17.000;2023-04-01T16:08:41;15.52;;;9.38;;
54197;SDS011;40105;52.366;17.000;2023-04-01T16:11:14;13.57;;;7.60;;
54197;SDS011;40105;52.366;17.000;2023-04-01T16:14:05;15.75;;;8.80;;
54197;SDS011;40105;52.366;17.000;2023-04-01T16:19:22;22.45;;;12.13;;
54197;SDS011;40105;52.366;17.000;2023-04-01T16:24:22;42.85;;;12.88;;
54197;SDS011;40105;52.366;17.000;2023-04-01T16:26:53;30.40;;;13.27;;
54197;SDS011;40105;52.366;17.000;2023-04-01T16:29:22;22.13;;;11.23;;
54197;SDS011;40105;52.366;17.000;2023-04-01T16:31:55;15.07;;;8.70;;
54197;SDS011;40105;52.366;17.000;2023-04-01T16:34:29;14.35;;;8.15;;
54197;SDS011;40105;52.366;17.000;2023-04-01T16:44:31;17.58;;;8.32;;
54197;SDS011;40105;52.366;17.000;2023-04-01T16:47:10;21.30;;;7.25;;
54197;SDS011;40105;52.366;17.000;2023-04-01T16:49:40;11.73;;;6.55;;
54197;SDS011;40105;52.366;17.000;2023-04-01T16:59:40;13.52;;;7.38;;
54197;SDS011;40105;52.366;17.000;2023-04-01T17:02:10;13.75;;;8.45;;
54197;SDS011;40105;52.366;17.000;2023-04-01T17:04:47;11.43;;;6.93;;
54197;SDS011;40105;52.366;17.000;2023-04-01T17:20:27;12.45;;;7.40;;
54197;SDS011;40105;52.366;17.000;2023-04-01T17:22:55;14.13;;;7.07;;
54197;SDS011;40105;52.366;17.000;2023-04-01T17:27:59;13.00;;;6.53;;
54197;SDS011;40105;52.366;17.000;2023-04-01T17:35:22;14.93;;;7.72;;
54197;SDS011;40105;52.366;17.000;2023-04-01T17:37:57;25.17;;;13.50;;
54197;SDS011;40105;52.366;17.000;2023-04-01T17:40:32;16.02;;;9.15;;
54197;SDS011;40105;52.366;17.000;2023-04-01T17:53:16;20.15;;;11.02;;
54197;SDS011;40105;52.366;17.000;2023-04-01T18:01:15;14.10;;;7.18;;
54197;SDS011;40105;52.366;17.000;2023-04-01T18:03:55;12.48;;;6.93;;
54197;SDS011;40105;52.366;17.000;2023-04-01T18:14:14;18.40;;;8.05;;
54197;SDS011;40105;52.366;17.000;2023-04-01T18:21:56;25.85;;;11.98;;
54197;SDS011;40105;52.366;17.000;2023-04-01T18:24:33;11.43;;;6.05;;
54197;SDS011;40105;52.366;17.000;2023-04-01T18:29:40;19.48;;;6.18;;
54197;SDS011;40105;52.366;17.000;2023-04-01T18:37:12;11.15;;;5.95;;
54197;SDS011;40105;52.366;17.000;2023-04-01T18:39:41;15.68;;;6.28;;
54197;SDS011;40105;52.366;17.000;2023-04-01T18:47:25;22.45;;;8.75;;
54197;SDS011;40105;52.366;17.000;2023-04-01T18:49:53;16.23;;;7.75;;
54197;SDS011;40105;52.366;17.000;2023-04-01T18:57:25;11.68;;;6.20;;
54197;SDS011;40105;52.366;17.000;2023-04-01T18:59:55;10.60;;;5.25;;
54197;SDS011;40105;52.366;17.000;2023-04-01T19:12:51;10.85;;;5.53;;
54197;SDS011;40105;52.366;17.000;2023-04-01T19:15:23;14.18;;;5.03;;
54197;SDS011;40105;52.366;17.000;2023-04-01T19:20:33;13.13;;;4.72;;
54197;SDS011;40105;52.366;17.000;2023-04-01T19:23:15;9.85;;;5.00;;
54197;SDS011;40105;52.366;17.000;2023-04-01T19:25:48;11.27;;;5.70;;
54197;SDS011;40105;52.366;17.000;2023-04-01T19:28:19;14.48;;;7.90;;
54197;SDS011;40105;52.366;17.000;2023-04-01T19:33:40;13.75;;;5.93;;
54197;SDS011;40105;52.366;17.000;2023-04-01T19:38:51;11.60;;;5.57;;
54197;SDS011;40105;52.366;17.000;2023-04-01T19:43:56;13.07;;;7.03;;
54197;SDS011;40105;52.366;17.000;2023-04-01T19:54:02;7.68;;;5.60;;
54197;SDS011;40105;52.366;17.000;2023-04-01T19:56:35;10.80;;;6.22;;
54197;SDS011;40105;52.366;17.000;2023-04-01T19:59:08;12.45;;;7.03;;
54197;SDS011;40105;52.366;17.000;2023-04-01T20:01:41;12.13;;;6.80;;
54197;SDS011;40105;52.366;17.000;2023-04-01T20:04:14;12.95;;;7.70;;
54197;SDS011;40105;52.366;17.000;2023-04-01T20:11:51;13.32;;;6.10;;
54197;SDS011;40105;52.366;17.000;2023-04-01T20:14:27;9.73;;;6.80;;
54197;SDS011;40105;52.366;17.000;2023-04-01T20:17:11;14.63;;;6.28;;
54197;SDS011;40105;52.366;17.000;2023-04-01T20:19:39;11.23;;;5.10;;
54197;SDS011;40105;52.366;17.000;2023-04-01T20:22:28;9.45;;;6.15;;
54197;SDS011;40105;52.366;17.000;2023-04-01T20:24:50;15.60;;;6.93;;
54197;SDS011;40105;52.366;17.000;2023-04-01T20:27:17;12.02;;;5.97;;
54197;SDS011;40105;52.366;17.000;2023-04-01T20:29:47;10.63;;;5.97;;
54197;SDS011;40105;52.366;17.000;2023-04-01T20:37:47;10.52;;;6.43;;
54197;SDS011;40105;52.366;17.000;2023-04-01T20:47:51;11.90;;;6.13;;
54197;SDS011;40105;52.366;17.000;2023-04-01T20:52:57;9.82;;;5.97;;
54197;SDS011;40105;52.366;17.000;2023-04-01T20:58:04;14.63;;;8.45;;
54197;SDS011;40105;52.366;17.000;2023-04-01T21:00:33;14.27;;;7.40;;
54197;SDS011;40105;52.366;17.000;2023-04-01T21:13:25;9.23;;;6.13;;
54197;SDS011;40105;52.366;17.000;2023-04-01T21:26:03;9.55;;;5.30;;
54197;SDS011;40105;52.366;17.000;2023-04-01T21:33:49;9.35;;;5.20;;
54197;SDS011;40105;52.366;17.000;2023-04-01T21:36:26;11.13;;;5.13;;
54197;SDS011;40105;52.366;17.000;2023-04-01T21:39:13;11.70;;;5.88;;
54197;SDS011;40105;52.366;17.000;2023-04-01T21:41:52;11.13;;;5.45;;
54197;SDS011;40105;52.366;17.000;2023-04-01T21:44:45;12.65;;;5.90;;
54197;SDS011;40105;52.366;17.000;2023-04-01T21:52:31;12.63;;;6.45;;
54197;SDS011;40105;52.366;17.000;2023-04-01T22:07:48;13.23;;;7.20;;
54197;SDS011;40105;52.366;17.000;2023-04-01T22:10:34;17.65;;;7.47;;
54197;SDS011;40105;52.366;17.000;2023-04-01T22:13:04;13.95;;;6.68;;
54197;SDS011;40105;52.366;17.000;2023-04-01T22:23:31;17.70;;;8.07;;
54197;SDS011;40105;52.366;17.000;2023-04-01T22:28:40;13.40;;;6.93;;
54197;SDS011;40105;52.366;17.000;2023-04-01T22:31:08;13.15;;;8.35;;
54197;SDS011;40105;52.366;17.000;2023-04-01T22:41:18;11.52;;;6.35;;
54197;SDS011;40105;52.366;17.000;2023-04-01T22:43:45;17.58;;;7.63;;
54197;SDS011;40105;52.366;17.000;2023-04-01T22:46:31;15.10;;;7.68;;
54197;SDS011;40105;52.366;17.000;2023-04-01T22:49:04;12.25;;;6.00;;
54197;SDS011;40105;52.366;17.000;2023-04-01T22:56:45;11.88;;;5.97;;
54197;SDS011;40105;52.366;17.000;2023-04-01T23:01:59;13.65;;;7.15;;
54197;SDS011;40105;52.366;17.000;2023-04-01T23:04:33;13.05;;;7.10;;
54197;SDS011;40105;52.366;17.000;2023-04-01T23:07:03;17.35;;;5.78;;
54197;SDS011;40105;52.366;17.000;2023-04-01T23:09:31;10.85;;;5.07;;
54197;SDS011;40105;52.366;17.000;2023-04-01T23:11:59;12.20;;;5.20;;
54197;SDS011;40105;52.366;17.000;2023-04-01T23:14:32;13.40;;;5.28;;
54197;SDS011;40105;52.366;17.000;2023-04-01T23:22:13;11.57;;;4.93;;
54197;SDS011;40105;52.366;17.000;2023-04-01T23:29:55;10.35;;;4.85;;
54197;SDS011;40105;52.366;17.000;2023-04-01T23:32:23;15.63;;;4.80;;
54197;SDS011;40105;52.366;17.000;2023-04-01T23:34:51;8.27;;;4.45;;
54197;SDS011;40105;52.366;17.000;2023-04-01T23:37:17;11.00;;;5.25;;
54197;SDS011;40105;52.366;17.000;2023-04-01T23:39:48;8.75;;;4.63;;
54197;SDS011;40105;52.366;17.000;2023-04-01T23:42:15;7.63;;;3.28;;
54197;SDS011;40105;52.366;17.000;2023-04-01T23:44:44;8.85;;;4.43;;
54197;SDS011;40105;52.366;17.000;2023-04-01T23:47:12;18.30;;;5.00;;
54197;SDS011;40105;52.366;17.000;2023-04-01T23:49:39;11.10;;;5.00;;
54197;SDS011;40105;52.366;17.000;2023-04-01T23:52:40;12.07;;;4.97;;
54197;SDS011;40105;52.366;17.000;2023-04-01T23:55:19;10.90;;;5.18;;
54197;SDS011;40105;52.366;17.000;2023-04-01T23:57:42;11.82;;;5.15;;
